Terminal Aerodrome Forecast
Issued by NWS Wilmington, NC

Home | Current Version | Previous Version | Text Only | Print | Product List | Glossary On
Versions: 1 2 3 4 5 6 7 8 9 10 11 12 13 14 15
000
FTUS42 KILM 051123
TAFMYR
TAF
KMYR 051123Z 0512/0612 33009KT P6SM -RA SCT015 OVC025
     FM051600 36008KT P6SM SCT025 BKN050
     FM060200 04006KT P6SM VCSH BKN015
     FM060600 05011KT 4SM -RA BR SCT003 OVC007=

USA.gov is the U.S. government's official web portal to all federal, state and local government web resources and services.